Time;durP1;ratioP1;P1;durP2;ratioP2;P2;SDS_P1;SDS_P2;PMS_P1;PMS_P2;Temp;Humidity;BMP_temperature;BMP_pressure;BME280_temperature;BME280_humidity;BME280_pressure;Samples;Min_cycle;Max_cycle;Signal;HPM_P1;HPM_P2
2021/06/11 00:00:43;;;;;;;36.10;23.58;;;;;;;;;;4377013;32;20432;-77
2021/06/11 00:03:08;;;;;;;37.00;24.55;;;;;;;;;;4377874;32;20172;-77
2021/06/11 00:05:33;;;;;;;38.83;25.50;;;;;;;;;;4375905;32;20154;-78
2021/06/11 00:07:59;;;;;;;32.00;21.65;;;;;;;;;;4377509;32;20472;-78
2021/06/11 00:10:24;;;;;;;31.70;18.77;;;;;;;;;;4375447;32;20185;-78
2021/06/11 00:12:49;;;;;;;31.33;20.02;;;;;;;;;;4361607;32;20518;-77
2021/06/11 00:15:15;;;;;;;31.77;20.10;;;;;;;;;;4373866;32;20198;-76
2021/06/11 00:17:40;;;;;;;29.60;19.97;;;;;;;;;;4377401;32;20690;-77
2021/06/11 00:20:06;;;;;;;29.33;18.92;;;;;;;;;;4375503;32;20271;-77
2021/06/11 00:22:31;;;;;;;29.23;18.20;;;;;;;;;;4377137;32;20181;-77
2021/06/11 00:24:57;;;;;;;30.10;17.70;;;;;;;;;;4375498;32;20163;-77
2021/06/11 00:27:22;;;;;;;33.10;20.10;;;;;;;;;;4377122;32;20307;-77
2021/06/11 00:29:47;;;;;;;29.90;18.77;;;;;;;;;;4374269;32;20242;-77
2021/06/11 00:32:12;;;;;;;33.67;18.33;;;;;;;;;;4375063;32;20231;-77
2021/06/11 00:34:38;;;;;;;34.17;18.20;;;;;;;;;;4375480;32;20135;-77
2021/06/11 00:37:03;;;;;;;32.13;19.15;;;;;;;;;;4376024;32;20227;-78
2021/06/11 00:39:28;;;;;;;30.45;19.30;;;;;;;;;;4376678;32;20151;-77
2021/06/11 00:41:54;;;;;;;31.42;17.65;;;;;;;;;;4376273;32;20140;-78
2021/06/11 00:44:19;;;;;;;31.48;19.05;;;;;;;;;;4376759;32;20135;-78
2021/06/11 00:46:44;;;;;;;32.63;19.17;;;;;;;;;;4375680;32;20140;-77
2021/06/11 00:49:09;;;;;;;34.88;20.88;;;;;;;;;;4377503;32;20139;-77
2021/06/11 00:51:35;;;;;;;34.87;20.20;;;;;;;;;;4362157;32;20217;-79
2021/06/11 00:54:00;;;;;;;34.03;20.23;;;;;;;;;;4363095;32;20283;-78
2021/06/11 00:56:25;;;;;;;33.75;19.12;;;;;;;;;;4375514;32;20186;-77
2021/06/11 00:58:51;;;;;;;37.22;21.62;;;;;;;;;;4374606;32;20582;-77
2021/06/11 01:01:16;;;;;;;34.85;20.67;;;;;;;;;;4374733;32;20154;-78
2021/06/11 01:03:41;;;;;;;38.13;22.00;;;;;;;;;;4376806;32;20254;-78
2021/06/11 01:06:06;;;;;;;42.95;23.62;;;;;;;;;;4372905;32;20267;-78
2021/06/11 01:08:31;;;;;;;43.30;23.50;;;;;;;;;;4374640;32;20166;-77
2021/06/11 01:10:57;;;;;;;37.03;20.93;;;;;;;;;;4376298;32;20138;-77
2021/06/11 01:13:23;;;;;;;38.63;20.65;;;;;;;;;;4375108;32;20247;-76
2021/06/11 01:15:50;;;;;;;53.45;24.75;;;;;;;;;;4362817;32;20213;-77
2021/06/11 01:18:15;;;;;;;39.17;20.17;;;;;;;;;;4374954;32;20168;-77
2021/06/11 01:20:41;;;;;;;52.13;24.48;;;;;;;;;;4361545;32;20163;-78
2021/06/11 01:23:25;;;;;;;48.70;22.90;;;;;;;;;;4361951;32;20170;-77
2021/06/11 01:26:09;;;;;;;55.80;25.95;;;;;;;;;;4361427;32;20533;-77
2021/06/11 01:28:35;;;;;;;47.88;23.12;;;;;;;;;;4375272;32;20135;-77
2021/06/11 01:31:00;;;;;;;49.28;23.27;;;;;;;;;;4374186;32;20202;-77
2021/06/11 01:33:27;;;;;;;45.50;24.40;;;;;;;;;;4360130;32;20320;-77
2021/06/11 01:35:58;;;;;;;50.40;25.83;;;;;;;;;;4360406;32;20162;-76
2021/06/11 01:38:26;;;;;;;49.55;25.27;;;;;;;;;;4361285;32;20162;-77
2021/06/11 01:40:53;;;;;;;49.65;25.83;;;;;;;;;;4359737;32;20159;-76
2021/06/11 01:43:19;;;;;;;47.65;24.15;;;;;;;;;;4373916;32;20131;-76
2021/06/11 01:45:44;;;;;;;46.40;23.20;;;;;;;;;;4361125;32;20631;-78
2021/06/11 01:48:10;;;;;;;47.13;23.45;;;;;;;;;;4375354;32;20159;-78
2021/06/11 01:50:36;;;;;;;43.33;22.73;;;;;;;;;;4373640;32;20212;-78
2021/06/11 01:53:01;;;;;;;42.72;22.60;;;;;;;;;;4373369;32;20162;-78
2021/06/11 01:55:27;;;;;;;46.13;23.00;;;;;;;;;;4373969;32;20181;-78
2021/06/11 01:57:53;;;;;;;54.97;24.75;;;;;;;;;;4374776;32;20205;-77
2021/06/11 02:00:18;;;;;;;58.22;24.52;;;;;;;;;;4375366;32;20578;-77
2021/06/11 02:02:45;;;;;;;52.83;23.75;;;;;;;;;;4374773;32;20180;-77
2021/06/11 02:05:11;;;;;;;65.57;25.95;;;;;;;;;;4361083;32;20607;-78
2021/06/11 02:07:37;;;;;;;76.75;26.70;;;;;;;;;;4361066;32;20217;-77
2021/06/11 02:10:06;;;;;;;67.65;26.17;;;;;;;;;;4360492;32;20159;-77
2021/06/11 02:12:31;;;;;;;59.45;25.27;;;;;;;;;;4375174;32;20166;-77
2021/06/11 02:14:57;;;;;;;140.18;28.70;;;;;;;;;;4373627;32;20578;-76
2021/06/11 02:17:23;;;;;;;73.07;26.87;;;;;;;;;;4373317;32;20136;-77
2021/06/11 02:19:49;;;;;;;282.92;30.02;;;;;;;;;;4373224;32;20146;-77
2021/06/11 02:22:15;;;;;;;193.32;29.85;;;;;;;;;;4374919;32;20513;-77
2021/06/11 02:24:40;;;;;;;134.15;30.42;;;;;;;;;;4361223;32;20242;-77
2021/06/11 02:27:06;;;;;;;160.65;28.75;;;;;;;;;;4375233;32;20224;-78
2021/06/11 02:29:33;;;;;;;204.48;31.48;;;;;;;;;;4359987;32;20159;-77
2021/06/11 02:31:58;;;;;;;216.65;30.33;;;;;;;;;;4361133;32;20170;-77
2021/06/11 02:34:23;;;;;;;218.12;32.22;;;;;;;;;;4373498;32;20135;-77
2021/06/11 02:36:48;;;;;;;308.92;34.45;;;;;;;;;;4374944;32;20132;-77
2021/06/11 02:39:14;;;;;;;257.67;31.83;;;;;;;;;;4371887;32;20639;-77
2021/06/11 02:41:42;;;;;;;179.73;35.25;;;;;;;;;;4360250;32;20159;-77
2021/06/11 02:44:08;;;;;;;306.70;36.13;;;;;;;;;;4374045;32;20169;-77
2021/06/11 02:46:40;;;;;;;355.60;36.95;;;;;;;;;;4373704;32;20135;-77
2021/06/11 02:49:08;;;;;;;331.40;38.88;;;;;;;;;;4360048;32;20197;-77
2021/06/11 02:51:39;;;;;;;364.50;37.67;;;;;;;;;;4360503;32;20158;-77
2021/06/11 02:54:07;;;;;;;233.90;35.83;;;;;;;;;;4373874;32;20147;-77
2021/06/11 02:56:44;;;;;;;309.08;34.63;;;;;;;;;;4374161;32;20139;-77
2021/06/11 02:59:18;;;;;;;325.70;38.65;;;;;;;;;;4373739;32;20143;-77
2021/06/11 03:01:51;;;;;;;321.08;37.20;;;;;;;;;;4360092;32;20162;-77
2021/06/11 03:04:17;;;;;;;330.77;41.72;;;;;;;;;;4375871;32;20174;-78
2021/06/11 03:06:43;;;;;;;289.25;38.42;;;;;;;;;;4360394;32;20201;-77
2021/06/11 03:09:10;;;;;;;236.12;39.80;;;;;;;;;;4372573;32;20170;-79
2021/06/11 03:11:39;;;;;;;291.70;40.67;;;;;;;;;;4375890;32;20407;-77
2021/06/11 03:14:05;;;;;;;198.80;38.42;;;;;;;;;;4374200;32;20146;-77
2021/06/11 03:16:31;;;;;;;212.25;40.25;;;;;;;;;;4374811;32;20217;-76
2021/06/11 03:18:59;;;;;;;192.98;42.03;;;;;;;;;;4359685;32;20182;-77
2021/06/11 03:21:26;;;;;;;245.07;41.58;;;;;;;;;;4374545;32;20159;-78
2021/06/11 03:23:58;;;;;;;280.23;45.15;;;;;;;;;;4371912;32;20221;-76
2021/06/11 03:26:26;;;;;;;205.40;45.33;;;;;;;;;;4360150;32;20608;-77
2021/06/11 03:28:53;;;;;;;216.77;47.75;;;;;;;;;;4372779;32;20216;-77
2021/06/11 03:31:25;;;;;;;236.18;45.67;;;;;;;;;;4363258;32;20171;-77
2021/06/11 03:33:52;;;;;;;202.52;45.47;;;;;;;;;;4376207;32;20163;-78
2021/06/11 03:36:20;;;;;;;187.50;46.90;;;;;;;;;;4363180;32;20488;-78
2021/06/11 03:38:49;;;;;;;177.87;43.72;;;;;;;;;;4365130;32;20216;-78
2021/06/11 03:41:15;;;;;;;182.85;44.80;;;;;;;;;;4378841;32;20131;-77
2021/06/11 03:43:41;;;;;;;199.45;46.58;;;;;;;;;;4378447;32;20131;-78
2021/06/11 03:46:06;;;;;;;198.02;40.92;;;;;;;;;;4376421;32;20139;-78
2021/06/11 03:48:33;;;;;;;165.75;45.75;;;;;;;;;;4376928;32;20147;-77
2021/06/11 03:51:00;;;;;;;132.50;46.30;;;;;;;;;;4376429;32;20134;-78
2021/06/11 03:53:26;;;;;;;156.00;49.10;;;;;;;;;;4376629;32;20151;-77
2021/06/11 03:55:54;;;;;;;120.47;44.15;;;;;;;;;;4362975;32;20257;-77
2021/06/11 03:58:31;;;;;;;124.65;44.40;;;;;;;;;;4376666;32;20170;-78
2021/06/11 04:00:58;;;;;;;91.25;33.85;;;;;;;;;;4362919;32;20745;-77
2021/06/11 04:03:23;;;;;;;91.97;34.38;;;;;;;;;;4376632;32;20139;-76
2021/06/11 04:05:51;;;;;;;87.32;34.35;;;;;;;;;;4363856;32;20470;-77
2021/06/11 04:08:17;;;;;;;82.03;35.45;;;;;;;;;;4376621;32;20213;-76
2021/06/11 04:10:50;;;;;;;83.78;34.05;;;;;;;;;;4376430;32;20196;-77
2021/06/11 04:13:25;;;;;;;77.18;31.15;;;;;;;;;;4376721;32;20201;-77
2021/06/11 04:15:52;;;;;;;81.95;34.08;;;;;;;;;;4376923;32;20163;-77
2021/06/11 04:18:26;;;;;;;73.93;32.55;;;;;;;;;;4376296;32;20135;-77
2021/06/11 04:20:53;;;;;;;85.03;35.00;;;;;;;;;;4375794;32;20163;-78
2021/06/11 04:23:19;;;;;;;74.12;32.97;;;;;;;;;;4376150;32;20193;-76
2021/06/11 04:25:45;;;;;;;76.57;33.83;;;;;;;;;;4376591;32;20172;-76
2021/06/11 04:28:11;;;;;;;74.32;33.58;;;;;;;;;;4377711;32;20921;-77
2021/06/11 04:30:36;;;;;;;73.20;34.80;;;;;;;;;;4363088;32;20577;-77
2021/06/11 04:33:17;;;;;;;61.72;31.02;;;;;;;;;;4375699;32;20214;-76
2021/06/11 04:35:42;;;;;;;63.05;29.58;;;;;;;;;;4361470;32;20263;-77
2021/06/11 04:38:07;;;;;;;60.05;32.05;;;;;;;;;;4376289;32;20162;-76
2021/06/11 04:40:32;;;;;;;59.90;32.00;;;;;;;;;;4375078;32;20245;-77
2021/06/11 04:42:59;;;;;;;55.70;29.42;;;;;;;;;;4375416;32;20329;-77
2021/06/11 04:45:24;;;;;;;56.45;31.40;;;;;;;;;;4374732;32;20269;-77
2021/06/11 04:47:49;;;;;;;55.33;31.98;;;;;;;;;;4375049;32;20198;-76
2021/06/11 04:50:14;;;;;;;52.10;28.40;;;;;;;;;;4362275;32;20184;-78
2021/06/11 04:52:39;;;;;;;54.33;31.92;;;;;;;;;;4374543;32;20274;-77
2021/06/11 04:55:05;;;;;;;55.87;30.30;;;;;;;;;;4376104;32;21134;-79
2021/06/11 04:57:30;;;;;;;59.80;34.35;;;;;;;;;;4375613;32;20325;-77
2021/06/11 04:59:55;;;;;;;56.73;32.70;;;;;;;;;;4375078;32;20186;-77
2021/06/11 05:02:20;;;;;;;59.13;33.88;;;;;;;;;;4377100;32;20261;-77
2021/06/11 05:04:46;;;;;;;62.20;34.40;;;;;;;;;;4375142;32;20132;-77
2021/06/11 05:07:11;;;;;;;60.58;35.05;;;;;;;;;;4376053;32;20255;-77
2021/06/11 05:09:36;;;;;;;60.55;34.33;;;;;;;;;;4375068;32;20138;-76
2021/06/11 05:12:01;;;;;;;62.90;35.60;;;;;;;;;;4374986;32;20140;-74
2021/06/11 05:14:26;;;;;;;68.40;36.50;;;;;;;;;;4375756;32;20135;-76
2021/06/11 05:16:52;;;;;;;75.05;38.67;;;;;;;;;;4375086;32;20214;-76
2021/06/11 05:19:17;;;;;;;68.68;36.80;;;;;;;;;;4376734;32;20226;-77
2021/06/11 05:21:42;;;;;;;74.13;39.53;;;;;;;;;;4376988;32;20131;-76
2021/06/11 05:24:07;;;;;;;71.95;37.50;;;;;;;;;;4375236;32;20734;-75
2021/06/11 05:26:33;;;;;;;69.37;37.35;;;;;;;;;;4373793;32;20185;-75
2021/06/11 05:28:58;;;;;;;74.78;38.20;;;;;;;;;;4373986;32;20846;-75
2021/06/11 05:31:23;;;;;;;75.93;39.30;;;;;;;;;;4359471;32;20155;-75
2021/06/11 05:33:49;;;;;;;74.53;35.60;;;;;;;;;;4373349;32;20246;-75
2021/06/11 05:36:14;;;;;;;75.57;38.88;;;;;;;;;;4373662;32;20648;-75
2021/06/11 05:38:39;;;;;;;78.60;39.55;;;;;;;;;;4373209;32;20521;-75
2021/06/11 05:41:05;;;;;;;77.70;38.70;;;;;;;;;;4374857;32;20476;-76
2021/06/11 05:43:30;;;;;;;77.22;41.20;;;;;;;;;;4374582;32;20170;-76
2021/06/11 05:45:56;;;;;;;70.60;35.97;;;;;;;;;;4375476;32;20242;-75
2021/06/11 05:48:21;;;;;;;67.90;35.65;;;;;;;;;;4374302;32;20166;-76
2021/06/11 05:50:46;;;;;;;74.62;40.53;;;;;;;;;;4375325;32;20163;-76
2021/06/11 05:53:12;;;;;;;70.32;37.78;;;;;;;;;;4375043;32;20143;-76
2021/06/11 05:55:37;;;;;;;67.85;38.08;;;;;;;;;;4373177;32;20276;-75
2021/06/11 05:58:02;;;;;;;72.00;38.60;;;;;;;;;;4373625;32;20254;-76
2021/06/11 06:00:27;;;;;;;63.25;35.55;;;;;;;;;;4360539;32;20599;-77
2021/06/11 06:02:53;;;;;;;66.62;35.85;;;;;;;;;;4373445;32;20551;-75
2021/06/11 06:05:18;;;;;;;67.22;38.55;;;;;;;;;;4373686;32;20127;-76
2021/06/11 06:07:43;;;;;;;70.28;39.08;;;;;;;;;;4373843;32;20143;-75
2021/06/11 06:10:09;;;;;;;74.35;42.10;;;;;;;;;;4375012;32;20166;-75
2021/06/11 06:12:34;;;;;;;64.03;38.95;;;;;;;;;;4375164;32;20150;-76
2021/06/11 06:14:59;;;;;;;62.13;36.43;;;;;;;;;;4374071;32;20135;-77
2021/06/11 06:17:25;;;;;;;59.53;36.20;;;;;;;;;;4374946;32;20296;-78
2021/06/11 06:19:50;;;;;;;66.28;38.67;;;;;;;;;;4374421;32;20139;-78
2021/06/11 06:22:16;;;;;;;57.20;34.67;;;;;;;;;;4372460;32;20208;-78
2021/06/11 06:24:41;;;;;;;54.00;32.75;;;;;;;;;;4373083;32;20353;-76
2021/06/11 06:27:06;;;;;;;46.63;29.25;;;;;;;;;;4371703;32;20212;-77
2021/06/11 06:29:31;;;;;;;45.15;27.30;;;;;;;;;;4374581;32;20525;-77
2021/06/11 06:31:56;;;;;;;45.07;29.00;;;;;;;;;;4372750;32;20198;-78
2021/06/11 06:34:22;;;;;;;49.60;28.23;;;;;;;;;;4358558;32;20266;-78
2021/06/11 06:36:47;;;;;;;51.42;31.50;;;;;;;;;;4372417;32;20159;-78
2021/06/11 06:39:12;;;;;;;53.95;33.47;;;;;;;;;;4374080;32;20135;-78
2021/06/11 06:41:37;;;;;;;60.95;37.08;;;;;;;;;;4373384;32;20660;-77
2021/06/11 06:44:03;;;;;;;66.90;38.38;;;;;;;;;;4373786;32;20217;-78
2021/06/11 06:46:28;;;;;;;61.92;35.17;;;;;;;;;;4372257;32;20254;-79
2021/06/11 06:48:54;;;;;;;60.35;35.95;;;;;;;;;;4372338;32;20150;-77
2021/06/11 06:51:20;;;;;;;62.13;37.33;;;;;;;;;;4373971;32;20198;-79
2021/06/11 06:53:46;;;;;;;61.92;39.78;;;;;;;;;;4372243;32;20373;-78
2021/06/11 06:56:11;;;;;;;51.83;31.98;;;;;;;;;;4374018;32;20496;-77
2021/06/11 06:58:36;;;;;;;57.80;33.60;;;;;;;;;;4370238;32;20151;-78
2021/06/11 07:01:02;;;;;;;58.50;35.70;;;;;;;;;;4372831;32;20159;-77
2021/06/11 07:03:27;;;;;;;54.80;33.22;;;;;;;;;;4374118;32;20154;-76
2021/06/11 07:05:52;;;;;;;53.38;31.60;;;;;;;;;;4376602;32;20138;-78
2021/06/11 07:08:17;;;;;;;56.50;33.50;;;;;;;;;;4362874;32;20973;-78
2021/06/11 07:10:43;;;;;;;55.27;31.80;;;;;;;;;;4363195;32;20592;-78
2021/06/11 07:13:14;;;;;;;52.38;29.35;;;;;;;;;;4375917;32;20285;-77
2021/06/11 07:15:39;;;;;;;63.10;32.30;;;;;;;;;;4375975;32;20138;-77
2021/06/11 07:18:05;;;;;;;58.50;31.50;;;;;;;;;;4375255;32;20228;-77
2021/06/11 07:20:30;;;;;;;54.78;31.95;;;;;;;;;;4376756;32;20689;-78
2021/06/11 07:22:55;;;;;;;48.53;28.98;;;;;;;;;;4376398;32;20151;-77
2021/06/11 07:25:20;;;;;;;50.50;29.65;;;;;;;;;;4377532;32;20394;-77
2021/06/11 07:27:45;;;;;;;48.92;29.87;;;;;;;;;;4364628;32;20352;-78
2021/06/11 07:30:11;;;;;;;54.75;32.65;;;;;;;;;;4374521;32;20620;-78
2021/06/11 07:32:36;;;;;;;48.83;30.05;;;;;;;;;;4377128;32;20312;-78
2021/06/11 07:35:02;;;;;;;50.05;30.10;;;;;;;;;;4361833;32;20826;-78
2021/06/11 07:37:27;;;;;;;50.92;31.85;;;;;;;;;;4375131;32;20558;-77
2021/06/11 07:39:52;;;;;;;54.08;32.40;;;;;;;;;;4375803;32;20155;-77
2021/06/11 07:42:18;;;;;;;50.83;34.00;;;;;;;;;;4361978;32;20326;-77
2021/06/11 07:44:44;;;;;;;56.08;31.90;;;;;;;;;;4374857;32;20239;-76
2021/06/11 07:47:09;;;;;;;54.40;36.28;;;;;;;;;;4361746;32;20162;-77
2021/06/11 07:49:35;;;;;;;54.30;32.60;;;;;;;;;;4374852;32;20135;-77
2021/06/11 07:52:00;;;;;;;45.95;32.25;;;;;;;;;;4360677;32;20213;-77
2021/06/11 07:54:25;;;;;;;44.58;31.62;;;;;;;;;;4374112;32;20198;-76
2021/06/11 07:56:51;;;;;;;44.65;32.85;;;;;;;;;;4373004;32;20150;-78
2021/06/11 07:59:16;;;;;;;48.97;36.38;;;;;;;;;;4360538;32;20202;-77
2021/06/11 08:01:41;;;;;;;45.50;30.90;;;;;;;;;;4375831;32;20139;-77
2021/06/11 08:04:06;;;;;;;46.80;34.95;;;;;;;;;;4376074;32;20294;-78
2021/06/11 08:06:31;;;;;;;49.07;33.33;;;;;;;;;;4374907;32;20162;-77
2021/06/11 08:08:57;;;;;;;51.53;34.05;;;;;;;;;;4361727;32;20692;-77
2021/06/11 08:11:22;;;;;;;40.47;27.75;;;;;;;;;;4374785;32;20174;-76
2021/06/11 08:13:47;;;;;;;42.95;29.12;;;;;;;;;;4374779;32;20221;-76
2021/06/11 08:16:12;;;;;;;41.67;28.58;;;;;;;;;;4374240;32;20151;-77
2021/06/11 08:18:38;;;;;;;42.45;29.85;;;;;;;;;;4374454;32;20146;-76
2021/06/11 08:21:03;;;;;;;39.15;28.77;;;;;;;;;;4370945;32;20662;-76
2021/06/11 08:23:28;;;;;;;38.67;29.75;;;;;;;;;;4373264;32;20671;-77
2021/06/11 08:25:53;;;;;;;39.28;25.83;;;;;;;;;;4373596;32;20166;-77
2021/06/11 08:28:18;;;;;;;36.03;27.75;;;;;;;;;;4374989;32;20691;-76
2021/06/11 08:30:44;;;;;;;36.50;27.87;;;;;;;;;;4373739;32;20144;-77
2021/06/11 08:33:09;;;;;;;34.80;24.58;;;;;;;;;;4374593;32;20286;-76
2021/06/11 08:35:34;;;;;;;32.58;24.98;;;;;;;;;;4373565;32;20214;-77
2021/06/11 08:38:00;;;;;;;33.75;24.63;;;;;;;;;;4360815;32;20186;-76
2021/06/11 08:40:25;;;;;;;34.78;25.67;;;;;;;;;;4362403;32;20171;-77
2021/06/11 08:42:51;;;;;;;37.33;25.75;;;;;;;;;;4375114;32;20139;-77
2021/06/11 08:45:16;;;;;;;35.13;25.52;;;;;;;;;;4372092;32;20207;-80
2021/06/11 08:47:50;;;;;;;35.10;26.15;;;;;;;;;;4361541;32;20170;-78
2021/06/11 08:50:17;;;;;;;34.20;25.08;;;;;;;;;;4361954;32;20171;-78
2021/06/11 08:52:43;;;;;;;34.20;25.77;;;;;;;;;;4384757;32;20175;-78
2021/06/11 08:55:08;;;;;;;31.73;24.23;;;;;;;;;;4372477;32;20185;-78
2021/06/11 08:57:33;;;;;;;31.40;23.70;;;;;;;;;;4374095;32;20147;-78
2021/06/11 08:59:59;;;;;;;28.50;23.05;;;;;;;;;;4374634;32;20540;-78
2021/06/11 09:02:24;;;;;;;27.02;21.87;;;;;;;;;;4373492;32;20162;-79
2021/06/11 09:04:52;;;;;;;24.83;20.48;;;;;;;;;;4361163;32;20242;-78
2021/06/11 09:07:34;;;;;;;22.58;19.10;;;;;;;;;;4361211;32;20242;-77
2021/06/11 09:10:00;;;;;;;23.40;18.65;;;;;;;;;;4360337;32;20237;-75
2021/06/11 09:12:26;;;;;;;26.20;19.23;;;;;;;;;;4372338;32;20143;-77
2021/06/11 09:14:56;;;;;;;22.05;17.55;;;;;;;;;;4361752;32;20143;-78
2021/06/11 09:17:34;;;;;;;20.05;16.48;;;;;;;;;;4354769;32;20253;-77
2021/06/11 09:20:05;;;;;;;16.42;13.85;;;;;;;;;;4361185;32;20147;-78
2021/06/11 09:22:37;;;;;;;18.08;14.20;;;;;;;;;;4361983;32;20171;-78
2021/06/11 09:25:21;;;;;;;18.02;14.20;;;;;;;;;;4375102;32;20158;-78
2021/06/11 09:27:50;;;;;;;18.27;14.00;;;;;;;;;;4375020;32;20190;-79
2021/06/11 09:30:15;;;;;;;16.60;12.90;;;;;;;;;;4374348;32;20150;-79
2021/06/11 09:32:40;;;;;;;18.43;13.63;;;;;;;;;;4372657;32;20188;-79
2021/06/11 09:35:07;;;;;;;17.43;13.37;;;;;;;;;;4377367;32;20567;-78
2021/06/11 09:37:34;;;;;;;15.98;13.95;;;;;;;;;;4372012;32;20255;-79
2021/06/11 09:40:03;;;;;;;16.25;12.82;;;;;;;;;;4373183;32;20146;-80
2021/06/11 09:42:32;;;;;;;16.55;13.52;;;;;;;;;;4358997;32;20638;-78
2021/06/11 09:45:01;;;;;;;17.00;11.90;;;;;;;;;;4373564;32;20174;-79
2021/06/11 09:47:53;;;;;;;13.43;10.85;;;;;;;;;;4451938;32;20215;-79
2021/06/11 09:50:19;;;;;;;14.32;11.38;;;;;;;;;;4447459;32;20639;-78
2021/06/11 09:52:51;;;;;;;19.20;16.75;;;;;;;;;;4448159;32;20180;-76
2021/06/11 09:55:24;;;;;;;23.33;19.42;;;;;;;;;;4445807;32;20209;-78
2021/06/11 09:58:01;;;;;;;23.40;20.23;;;;;;;;;;4447117;32;20153;-76
2021/06/11 10:00:30;;;;;;;29.12;23.83;;;;;;;;;;4444783;32;20192;-77
2021/06/11 10:02:57;;;;;;;35.53;31.25;;;;;;;;;;4445048;32;20191;-78
2021/06/11 10:05:22;;;;;;;28.17;21.40;;;;;;;;;;4446883;32;20210;-78
2021/06/11 10:07:48;;;;;;;32.95;27.27;;;;;;;;;;4439454;32;20160;-78
2021/06/11 10:10:13;;;;;;;29.92;26.42;;;;;;;;;;4446158;32;20313;-79
2021/06/11 10:12:38;;;;;;;36.50;31.63;;;;;;;;;;4445385;32;20539;-78
2021/06/11 10:15:03;;;;;;;32.60;28.95;;;;;;;;;;4446469;32;20288;-78
2021/06/11 10:17:29;;;;;;;31.50;28.02;;;;;;;;;;4445570;32;20149;-78
2021/06/11 10:19:54;;;;;;;38.75;29.40;;;;;;;;;;4446147;32;20241;-74
2021/06/11 10:22:19;;;;;;;32.47;28.75;;;;;;;;;;4443655;32;20644;-70
2021/06/11 10:24:44;;;;;;;37.30;30.92;;;;;;;;;;4445945;32;20154;-70
2021/06/11 10:27:10;;;;;;;34.38;30.65;;;;;;;;;;4445086;32;20161;-71
2021/06/11 10:29:35;;;;;;;38.17;32.50;;;;;;;;;;4443835;32;20187;-71
2021/06/11 10:32:01;;;;;;;39.63;32.75;;;;;;;;;;4445552;32;20249;-71
2021/06/11 10:34:46;;;;;;;36.67;31.42;;;;;;;;;;4445043;32;20212;-71
2021/06/11 10:37:30;;;;;;;33.92;28.52;;;;;;;;;;4430549;32;20173;-71
2021/06/11 10:40:11;;;;;;;36.78;31.92;;;;;;;;;;4429843;32;20554;-70
2021/06/11 10:42:36;;;;;;;33.55;29.95;;;;;;;;;;4442665;32;20184;-70
2021/06/11 10:45:02;;;;;;;37.05;30.77;;;;;;;;;;4430527;32;20176;-70
2021/06/11 10:47:28;;;;;;;35.55;30.17;;;;;;;;;;4429595;32;20173;-70
2021/06/11 10:49:56;;;;;;;36.50;32.10;;;;;;;;;;4445124;32;20582;-70
2021/06/11 10:52:42;;;;;;;34.65;29.80;;;;;;;;;;4445021;32;20153;-71
2021/06/11 10:55:13;;;;;;;36.35;32.55;;;;;;;;;;4443554;32;20157;-71
2021/06/11 10:57:38;;;;;;;33.67;29.95;;;;;;;;;;4424652;32;20441;-72
2021/06/11 11:00:03;;;;;;;33.92;28.25;;;;;;;;;;4435717;32;20211;-73
2021/06/11 11:02:45;;;;;;;33.45;28.60;;;;;;;;;;4420860;32;20176;-72
2021/06/11 11:05:24;;;;;;;33.20;29.80;;;;;;;;;;4419017;32;20228;-74
2021/06/11 11:07:50;;;;;;;33.92;28.95;;;;;;;;;;4418279;32;20490;-74
2021/06/11 11:10:31;;;;;;;30.92;27.40;;;;;;;;;;4435266;32;20168;-74
2021/06/11 11:13:17;;;;;;;31.73;27.13;;;;;;;;;;4429272;32;20202;-75
2021/06/11 11:15:42;;;;;;;31.50;28.08;;;;;;;;;;4412822;32;20169;-75
2021/06/11 11:18:15;;;;;;;29.70;26.25;;;;;;;;;;4434585;32;20212;-74
2021/06/11 11:20:41;;;;;;;32.30;28.80;;;;;;;;;;4434640;32;20212;-75
2021/06/11 11:23:08;;;;;;;28.52;25.45;;;;;;;;;;4420677;32;20207;-74
2021/06/11 11:25:33;;;;;;;25.40;22.70;;;;;;;;;;4433869;32;20154;-76
2021/06/11 11:27:59;;;;;;;24.42;21.85;;;;;;;;;;4420278;32;20650;-75
2021/06/11 11:30:28;;;;;;;27.25;23.48;;;;;;;;;;4420295;32;20197;-76
2021/06/11 11:32:57;;;;;;;21.70;19.25;;;;;;;;;;4435575;32;20179;-75
2021/06/11 11:35:25;;;;;;;21.20;17.30;;;;;;;;;;4434123;32;20150;-73
2021/06/11 11:37:52;;;;;;;23.48;18.75;;;;;;;;;;4419774;32;20204;-74
2021/06/11 11:40:17;;;;;;;23.50;17.50;;;;;;;;;;4436208;32;20149;-75
2021/06/11 11:42:42;;;;;;;24.80;20.58;;;;;;;;;;4436714;32;20168;-75
2021/06/11 11:45:08;;;;;;;22.70;18.65;;;;;;;;;;4435223;32;20157;-74
2021/06/11 11:47:33;;;;;;;23.75;18.83;;;;;;;;;;4434464;32;20574;-74
2021/06/11 11:49:58;;;;;;;21.90;17.70;;;;;;;;;;4435671;32;20149;-74
2021/06/11 11:52:23;;;;;;;22.97;17.63;;;;;;;;;;4422397;32;20177;-76
2021/06/11 11:54:49;;;;;;;23.05;20.52;;;;;;;;;;4423510;32;20287;-75
2021/06/11 11:57:14;;;;;;;22.48;17.25;;;;;;;;;;4434927;32;20598;-74
2021/06/11 11:59:39;;;;;;;19.48;17.35;;;;;;;;;;4434714;32;20252;-74
2021/06/11 12:02:08;;;;;;;25.08;19.27;;;;;;;;;;4434747;32;20146;-75
2021/06/11 12:04:33;;;;;;;24.55;20.80;;;;;;;;;;4436038;32;20515;-75
2021/06/11 12:06:58;;;;;;;21.67;19.33;;;;;;;;;;4435725;32;20214;-75
2021/06/11 12:09:23;;;;;;;20.17;17.60;;;;;;;;;;4434631;32;20188;-74
2021/06/11 12:11:49;;;;;;;22.30;18.30;;;;;;;;;;4419808;32;20513;-75
2021/06/11 12:14:14;;;;;;;19.53;17.43;;;;;;;;;;4432303;32;20332;-75
2021/06/11 12:16:39;;;;;;;18.92;16.85;;;;;;;;;;4434558;32;20233;-75
2021/06/11 12:19:05;;;;;;;17.12;14.52;;;;;;;;;;4419929;32;20256;-76
2021/06/11 12:21:30;;;;;;;19.02;15.02;;;;;;;;;;4420367;32;20502;-75
2021/06/11 12:23:55;;;;;;;17.62;15.52;;;;;;;;;;4436188;32;20142;-74
2021/06/11 12:26:20;;;;;;;16.67;14.70;;;;;;;;;;4434639;32;20402;-74
2021/06/11 12:28:46;;;;;;;18.92;15.45;;;;;;;;;;4420178;32;20291;-75
2021/06/11 12:31:11;;;;;;;17.15;14.50;;;;;;;;;;4433267;32;20828;-73
2021/06/11 12:33:36;;;;;;;15.48;13.82;;;;;;;;;;4419696;32;20521;-74
2021/06/11 12:36:03;;;;;;;14.00;12.60;;;;;;;;;;4434634;32;20669;-75
2021/06/11 12:38:28;;;;;;;17.02;14.93;;;;;;;;;;4429912;32;20249;-76
2021/06/11 12:40:56;;;;;;;15.73;14.07;;;;;;;;;;4420671;32;20504;-76
2021/06/11 12:43:29;;;;;;;20.42;15.98;;;;;;;;;;4434094;32;20171;-75
2021/06/11 12:45:54;;;;;;;16.85;15.00;;;;;;;;;;4420747;32;20193;-76
2021/06/11 12:48:19;;;;;;;19.65;15.80;;;;;;;;;;4434049;32;20154;-75
2021/06/11 12:50:44;;;;;;;17.73;15.50;;;;;;;;;;4419574;32;20191;-75
2021/06/11 12:53:10;;;;;;;17.13;15.30;;;;;;;;;;4416746;32;20311;-75
2021/06/11 12:55:38;;;;;;;20.08;16.00;;;;;;;;;;4417373;32;20269;-77
2021/06/11 12:58:03;;;;;;;17.30;14.73;;;;;;;;;;4412845;32;20335;-76
2021/06/11 13:00:29;;;;;;;15.10;13.50;;;;;;;;;;4415595;32;20642;-76
2021/06/11 13:02:54;;;;;;;12.65;11.40;;;;;;;;;;4429843;32;20361;-76
2021/06/11 13:05:26;;;;;;;14.57;13.00;;;;;;;;;;4430014;32;20194;-76
2021/06/11 13:07:51;;;;;;;13.57;11.23;;;;;;;;;;4431818;32;20634;-75
2021/06/11 13:10:16;;;;;;;12.20;10.80;;;;;;;;;;4416802;32;20169;-76
2021/06/11 13:12:41;;;;;;;14.73;11.57;;;;;;;;;;4431579;32;20212;-76
2021/06/11 13:15:07;;;;;;;11.90;9.80;;;;;;;;;;4417881;32;20265;-76
2021/06/11 13:17:32;;;;;;;10.80;9.65;;;;;;;;;;4431935;32;20598;-76
2021/06/11 13:19:58;;;;;;;10.85;9.63;;;;;;;;;;4431747;32;20154;-76
2021/06/11 13:22:23;;;;;;;10.50;8.80;;;;;;;;;;4432312;32;20145;-77
2021/06/11 13:24:48;;;;;;;10.35;8.18;;;;;;;;;;4415219;32;20176;-76
2021/06/11 13:27:13;;;;;;;10.02;7.85;;;;;;;;;;4430891;32;20241;-76
2021/06/11 13:29:38;;;;;;;9.60;8.30;;;;;;;;;;4431944;32;20162;-77
2021/06/11 13:32:04;;;;;;;12.50;8.63;;;;;;;;;;4432842;32;20230;-76
2021/06/11 13:34:29;;;;;;;10.18;8.50;;;;;;;;;;4418038;32;20236;-77
2021/06/11 13:36:54;;;;;;;8.95;6.82;;;;;;;;;;4417188;32;20189;-77
2021/06/11 13:39:19;;;;;;;8.65;7.47;;;;;;;;;;4430195;32;20154;-77
2021/06/11 13:41:45;;;;;;;10.52;8.18;;;;;;;;;;4408512;32;20169;-76
2021/06/11 13:44:10;;;;;;;9.05;7.47;;;;;;;;;;4415992;32;20350;-76
2021/06/11 13:46:35;;;;;;;10.35;7.45;;;;;;;;;;4416843;32;20295;-76
2021/06/11 13:49:00;;;;;;;23.80;9.03;;;;;;;;;;4417940;32;20490;-77
2021/06/11 13:51:25;;;;;;;10.02;8.00;;;;;;;;;;4432052;32;20241;-78
2021/06/11 13:53:52;;;;;;;9.07;7.53;;;;;;;;;;4417681;32;20285;-76
2021/06/11 13:56:18;;;;;;;11.70;7.15;;;;;;;;;;4434103;32;20157;-76
2021/06/11 13:58:44;;;;;;;9.13;6.10;;;;;;;;;;4418089;32;20162;-76
2021/06/11 14:01:09;;;;;;;9.70;6.75;;;;;;;;;;4418421;32;20207;-77
2021/06/11 14:03:35;;;;;;;9.85;6.47;;;;;;;;;;4433304;32;20142;-76
2021/06/11 14:06:00;;;;;;;8.30;7.07;;;;;;;;;;4432121;32;20145;-76
2021/06/11 14:08:25;;;;;;;14.13;7.55;;;;;;;;;;4418976;32;20923;-76
2021/06/11 14:10:53;;;;;;;11.07;7.20;;;;;;;;;;4418310;32;20196;-77
2021/06/11 14:13:18;;;;;;;9.27;6.32;;;;;;;;;;4432699;32;20134;-77